Time;durP1;ratioP1;P1;durP2;ratioP2;P2;SDS_P1;SDS_P2;PMS_P1;PMS_P2;Temp;Humidity;BMP_temperature;BMP_pressure;BME280_temperature;BME280_humidity;BME280_pressure;Samples;Min_cycle;Max_cycle;Signal;HPM_P1;HPM_P2
2021/12/10 00:00:10;;;;;;;51.53;26.83;;;4.40;99.90;;;;;;5109256;28;20035;-58
2021/12/10 00:02:36;;;;;;;50.50;25.77;;;4.40;99.90;;;;;;5108294;28;20040;-58
2021/12/10 00:05:05;;;;;;;50.10;25.52;;;4.40;99.90;;;;;;5105500;28;20035;-59
2021/12/10 00:07:31;;;;;;;51.78;26.15;;;4.40;99.90;;;;;;5110273;28;20048;-59
2021/12/10 00:10:02;;;;;;;53.00;26.17;;;4.40;99.90;;;;;;5090901;28;20045;-59
2021/12/10 00:12:33;;;;;;;49.95;25.40;;;4.40;99.90;;;;;;5110917;28;20135;-59
2021/12/10 00:14:59;;;;;;;46.13;24.25;;;4.40;99.90;;;;;;5086501;28;20495;-59
2021/12/10 00:17:25;;;;;;;44.72;23.70;;;4.30;99.90;;;;;;5106005;28;20466;-59
2021/12/10 00:19:56;;;;;;;45.45;24.63;;;4.30;99.90;;;;;;5103348;28;20043;-59
2021/12/10 00:22:39;;;;;;;49.72;25.30;;;4.20;99.90;;;;;;5111053;28;20035;-58
2021/12/10 00:25:16;;;;;;;46.70;24.63;;;4.20;99.90;;;;;;5108169;28;20047;-58
2021/12/10 00:27:42;;;;;;;47.28;24.30;;;4.10;99.90;;;;;;5108447;28;20057;-59
2021/12/10 00:30:19;;;;;;;46.28;24.80;;;4.10;99.90;;;;;;5108719;28;20043;-59
2021/12/10 00:32:58;;;;;;;48.40;24.40;;;4.10;99.90;;;;;;5109275;28;20036;-59
2021/12/10 00:35:27;;;;;;;50.45;23.75;;;4.10;99.90;;;;;;5102742;28;20036;-59
2021/12/10 00:37:53;;;;;;;50.30;23.65;;;4.10;99.90;;;;;;5110490;28;20371;-59
2021/12/10 00:40:21;;;;;;;41.83;24.10;;;4.10;99.90;;;;;;5107955;28;20047;-59
2021/12/10 00:42:46;;;;;;;39.85;20.88;;;4.00;99.90;;;;;;5110773;28;20037;-59
2021/12/10 00:45:16;;;;;;;39.40;20.80;;;4.00;99.90;;;;;;5105182;28;20036;-59
2021/12/10 00:47:42;;;;;;;37.30;20.38;;;4.00;99.90;;;;;;5104106;28;20090;-59
2021/12/10 00:50:12;;;;;;;39.00;20.98;;;4.10;99.90;;;;;;5103245;28;20487;-58
2021/12/10 00:52:38;;;;;;;32.78;19.13;;;4.10;99.90;;;;;;5110553;28;20452;-59
2021/12/10 00:55:06;;;;;;;36.38;19.67;;;4.10;99.90;;;;;;5109100;28;20040;-59
2021/12/10 00:57:32;;;;;;;38.70;19.08;;;4.10;99.90;;;;;;5112759;28;20496;-59
2021/12/10 00:59:58;;;;;;;39.80;19.08;;;4.10;99.90;;;;;;5108180;28;20086;-58
2021/12/10 01:02:24;;;;;;;37.45;19.27;;;4.20;99.90;;;;;;5114045;28;20036;-58
2021/12/10 01:04:54;;;;;;;31.23;17.67;;;4.20;99.90;;;;;;5101551;28;20070;-59
2021/12/10 01:07:26;;;;;;;36.47;18.60;;;4.20;99.90;;;;;;5113552;28;20078;-58
2021/12/10 01:09:56;;;;;;;37.70;17.52;;;4.20;99.90;;;;;;5108610;28;20040;-59
2021/12/10 01:12:24;;;;;;;34.50;17.92;;;4.20;99.90;;;;;;5114159;28;20115;-59
2021/12/10 01:23:57;;;;;;;26.98;16.63;;;4.20;99.90;;;;;;5113780;28;20042;-58
2021/12/10 01:29:34;;;;;;;33.22;17.85;;;4.20;99.90;;;;;;5107592;28;20047;-59
2021/12/10 01:32:03;;;;;;;28.65;18.10;;;4.20;99.90;;;;;;5112050;28;20034;-59
2021/12/10 01:34:29;;;;;;;31.95;18.42;;;4.20;99.90;;;;;;5110728;28;20405;-59
2021/12/10 01:36:56;;;;;;;29.95;18.02;;;4.30;99.90;;;;;;5092890;28;20040;-58
2021/12/10 01:39:26;;;;;;;33.05;17.40;;;4.20;99.90;;;;;;5113448;28;20032;-59
2021/12/10 01:42:02;;;;;;;33.45;17.63;;;4.30;99.90;;;;;;5110221;28;20044;-59
2021/12/10 01:44:36;;;;;;;33.30;18.08;;;4.30;99.90;;;;;;5109224;28;20047;-58
2021/12/10 01:47:06;;;;;;;32.08;18.52;;;4.30;99.90;;;;;;5113252;28;20617;-60
2021/12/10 01:49:32;;;;;;;34.85;18.45;;;4.20;99.90;;;;;;5107405;28;20047;-59
2021/12/10 01:51:58;;;;;;;41.20;18.17;;;4.20;99.90;;;;;;5113220;28;20064;-59
2021/12/10 01:54:35;;;;;;;35.40;18.55;;;4.20;99.90;;;;;;5111656;28;20498;-58
2021/12/10 01:57:02;;;;;;;36.38;17.55;;;4.30;99.90;;;;;;5094610;28;20106;-58
2021/12/10 01:59:33;;;;;;;29.35;17.48;;;4.20;99.90;;;;;;5111267;28;20062;-58
2021/12/10 02:02:03;;;;;;;31.13;17.20;;;4.20;99.90;;;;;;5107235;28;20031;-59
2021/12/10 02:04:32;;;;;;;36.97;16.70;;;4.20;99.90;;;;;;5111799;28;20110;-59
2021/12/10 02:07:00;;;;;;;35.50;18.00;;;4.20;99.90;;;;;;5109656;28;20367;-58
2021/12/10 02:09:26;;;;;;;35.42;18.60;;;4.20;99.90;;;;;;5113106;28;20058;-58
2021/12/10 02:11:52;;;;;;;31.65;18.02;;;4.20;99.90;;;;;;5109493;28;20071;-59
2021/12/10 02:14:18;;;;;;;34.08;17.85;;;4.20;99.90;;;;;;5112890;28;20066;-59
2021/12/10 02:16:44;;;;;;;30.00;17.10;;;4.20;99.90;;;;;;5110969;28;20423;-59
2021/12/10 02:19:12;;;;;;;36.67;17.13;;;4.20;99.90;;;;;;5094487;28;20088;-58
2021/12/10 02:21:39;;;;;;;30.08;16.42;;;4.20;99.90;;;;;;5105550;28;20092;-59
2021/12/10 02:24:07;;;;;;;33.25;16.45;;;4.20;99.90;;;;;;5111481;28;20047;-60
2021/12/10 02:26:55;;;;;;;33.17;17.45;;;4.20;99.90;;;;;;5110554;28;20483;-58
2021/12/10 02:29:24;;;;;;;30.50;17.17;;;4.20;99.90;;;;;;5112757;28;20073;-59
2021/12/10 02:31:51;;;;;;;28.38;15.40;;;4.10;99.90;;;;;;5108788;28;20040;-59
2021/12/10 02:34:17;;;;;;;28.23;15.05;;;4.10;99.90;;;;;;5112620;28;20089;-60
2021/12/10 02:36:43;;;;;;;26.88;15.23;;;4.10;99.90;;;;;;5085699;28;20040;-59
2021/12/10 02:39:21;;;;;;;26.70;14.98;;;4.10;99.90;;;;;;5112123;28;20035;-59
2021/12/10 02:41:47;;;;;;;27.92;14.45;;;4.10;99.90;;;;;;5111772;28;20042;-59
2021/12/10 02:44:18;;;;;;;26.55;14.93;;;4.00;99.90;;;;;;5109160;28;20027;-59
2021/12/10 02:46:44;;;;;;;24.83;14.73;;;4.00;99.90;;;;;;5108647;28;20040;-58
2021/12/10 02:49:11;;;;;;;29.85;15.00;;;4.00;99.90;;;;;;5103436;28;20027;-59
2021/12/10 02:51:38;;;;;;;30.35;15.18;;;4.00;99.90;;;;;;5109124;28;20565;-58
2021/12/10 02:54:07;;;;;;;28.38;13.93;;;4.00;99.90;;;;;;5089625;28;20154;-59
2021/12/10 02:56:33;;;;;;;28.20;14.02;;;4.10;99.90;;;;;;5109654;28;20114;-59
2021/12/10 02:59:01;;;;;;;29.08;14.40;;;4.00;99.90;;;;;;5111603;28;20070;-58
2021/12/10 03:01:30;;;;;;;27.42;14.55;;;4.00;99.90;;;;;;5091191;28;20054;-59
2021/12/10 03:03:58;;;;;;;28.55;14.60;;;4.00;99.90;;;;;;5110530;28;20107;-59
2021/12/10 03:06:25;;;;;;;27.55;14.25;;;4.00;99.90;;;;;;5109467;28;20468;-59
2021/12/10 03:08:53;;;;;;;25.10;13.38;;;4.00;99.90;;;;;;5107264;28;20063;-58
2021/12/10 03:11:25;;;;;;;27.50;13.90;;;4.00;99.90;;;;;;5111838;28;20055;-59
2021/12/10 03:13:51;;;;;;;26.88;13.80;;;4.30;99.90;;;;;;5110148;28;20038;-59
2021/12/10 03:16:18;;;;;;;23.08;12.73;;;3.90;99.90;;;;;;5110473;28;20036;-58
2021/12/10 03:18:44;;;;;;;24.52;12.43;;;3.90;99.90;;;;;;5107549;28;20028;-59
2021/12/10 03:21:10;;;;;;;20.90;12.68;;;3.90;99.90;;;;;;5109508;28;20084;-59
2021/12/10 03:23:42;;;;;;;27.65;12.40;;;3.80;99.90;;;;;;5091282;28;20079;-59
2021/12/10 03:26:10;;;;;;;24.92;11.90;;;3.80;99.90;;;;;;5076548;28;20114;-59
2021/12/10 03:28:37;;;;;;;23.25;13.02;;;3.70;99.90;;;;;;5106693;28;20047;-59
2021/12/10 03:31:04;;;;;;;21.40;12.52;;;3.70;99.90;;;;;;5111643;28;20043;-59
2021/12/10 03:33:30;;;;;;;20.77;12.40;;;3.70;99.90;;;;;;5108440;28;20494;-59
2021/12/10 03:35:56;;;;;;;25.60;12.82;;;3.60;99.90;;;;;;5090815;28;20039;-59
2021/12/10 03:38:24;;;;;;;23.63;12.85;;;3.60;99.90;;;;;;5109226;28;20030;-59
2021/12/10 03:40:50;;;;;;;26.38;12.30;;;3.60;99.90;;;;;;5108987;28;20054;-59
2021/12/10 03:43:16;;;;;;;22.35;12.55;;;3.50;99.90;;;;;;5107958;28;20439;-58
2021/12/10 03:45:47;;;;;;;24.00;12.43;;;3.40;99.90;;;;;;5109298;28;20041;-59
2021/12/10 03:48:18;;;;;;;21.90;13.07;;;3.40;99.90;;;;;;5105327;28;20454;-58
2021/12/10 03:50:45;;;;;;;24.92;13.15;;;3.40;99.90;;;;;;5089522;28;20043;-58
2021/12/10 03:53:12;;;;;;;26.17;12.90;;;3.30;99.90;;;;;;5087998;28;20035;-58
2021/12/10 03:55:38;;;;;;;21.48;12.52;;;3.30;99.90;;;;;;5085461;28;20035;-57
2021/12/10 03:58:05;;;;;;;23.92;13.13;;;3.30;99.90;;;;;;5110557;28;20043;-59
2021/12/10 04:00:37;;;;;;;23.90;13.73;;;3.30;99.90;;;;;;5106733;28;20036;-59
2021/12/10 04:03:04;;;;;;;23.08;13.77;;;3.20;99.90;;;;;;5106947;28;20487;-59
2021/12/10 04:05:30;;;;;;;27.58;13.82;;;3.20;99.90;;;;;;5108785;28;20119;-58
2021/12/10 04:07:56;;;;;;;26.33;14.48;;;3.20;99.90;;;;;;5090610;28;20059;-59
2021/12/10 04:10:23;;;;;;;27.98;15.68;;;3.20;99.90;;;;;;5111009;28;20514;-59
2021/12/10 04:12:49;;;;;;;26.80;14.45;;;3.10;99.90;;;;;;5108813;28;20039;-58
2021/12/10 04:15:19;;;;;;;25.73;14.38;;;3.10;99.90;;;;;;5111044;28;20043;-59
2021/12/10 04:17:48;;;;;;;27.58;14.20;;;3.10;99.90;;;;;;5086492;28;20063;-59
2021/12/10 04:20:15;;;;;;;24.98;13.90;;;3.00;99.90;;;;;;5108931;28;20513;-59
2021/12/10 04:22:46;;;;;;;26.92;14.85;;;3.00;99.90;;;;;;5104356;28;20073;-58
2021/12/10 04:25:13;;;;;;;28.33;14.80;;;2.90;99.90;;;;;;5110669;28;20510;-59
2021/12/10 04:27:39;;;;;;;29.48;15.10;;;2.90;99.90;;;;;;5108343;28;20043;-59
2021/12/10 04:30:06;;;;;;;26.58;14.52;;;2.90;99.90;;;;;;5114940;28;20398;-59
2021/12/10 04:32:33;;;;;;;29.65;15.00;;;2.90;99.90;;;;;;5111450;28;20043;-59
2021/12/10 04:34:59;;;;;;;26.02;14.10;;;2.80;99.90;;;;;;5113150;28;20096;-59
2021/12/10 04:37:25;;;;;;;26.38;14.57;;;2.80;99.90;;;;;;5111115;28;20474;-58
2021/12/10 04:39:51;;;;;;;22.77;14.18;;;2.80;99.90;;;;;;5114740;28;20092;-59
2021/12/10 04:42:23;;;;;;;29.73;14.90;;;2.80;99.90;;;;;;5093657;28;20391;-58
2021/12/10 04:44:54;;;;;;;33.90;16.38;;;2.80;99.90;;;;;;5114809;28;20596;-58
2021/12/10 04:47:20;;;;;;;30.60;15.38;;;2.70;99.90;;;;;;5109618;28;20035;-58
2021/12/10 04:49:45;;;;;;;26.15;15.23;;;2.70;99.90;;;;;;5094431;28;20032;-58
2021/12/10 04:52:11;;;;;;;31.15;15.88;;;2.70;99.90;;;;;;5114339;28;20036;-60
2021/12/10 04:54:37;;;;;;;30.13;15.50;;;2.60;99.90;;;;;;5107316;28;20044;-59
2021/12/10 04:57:04;;;;;;;31.58;16.15;;;2.60;99.90;;;;;;5112435;28;20035;-59
2021/12/10 04:59:32;;;;;;;28.75;15.75;;;2.60;99.90;;;;;;5126800;27;20043;-59
2021/12/10 05:02:00;;;;;;;32.47;16.65;;;2.50;99.90;;;;;;5112886;28;20043;-58
2021/12/10 05:04:27;;;;;;;29.98;15.73;;;2.50;99.90;;;;;;5112342;28;20040;-58
2021/12/10 05:06:54;;;;;;;33.45;16.73;;;2.50;99.90;;;;;;5105361;28;20040;-59
2021/12/10 05:09:21;;;;;;;29.75;16.25;;;2.50;99.90;;;;;;5091164;28;20055;-59
2021/12/10 05:11:48;;;;;;;32.08;16.85;;;2.40;99.90;;;;;;5091464;28;20028;-58
2021/12/10 05:14:15;;;;;;;31.95;16.80;;;2.40;99.90;;;;;;5091873;28;20032;-59
2021/12/10 05:16:44;;;;;;;29.35;17.63;;;2.40;99.90;;;;;;5091982;28;20073;-59
2021/12/10 05:19:16;;;;;;;29.70;16.83;;;2.40;99.90;;;;;;5092778;28;20027;-58
2021/12/10 05:21:46;;;;;;;31.15;16.70;;;2.40;99.90;;;;;;5089246;28;20047;-59
2021/12/10 05:24:13;;;;;;;28.33;16.70;;;2.30;99.90;;;;;;5092994;28;20417;-59
2021/12/10 05:26:39;;;;;;;33.28;16.92;;;2.30;99.90;;;;;;5093070;28;20036;-59
2021/12/10 05:29:06;;;;;;;30.60;16.10;;;2.30;99.90;;;;;;5093290;28;20533;-59
2021/12/10 05:31:33;;;;;;;30.20;16.95;;;2.30;99.90;;;;;;5083018;28;20046;-59
2021/12/10 05:33:59;;;;;;;31.67;17.02;;;2.30;99.90;;;;;;5087123;28;20043;-59
2021/12/10 05:36:26;;;;;;;29.55;17.45;;;2.20;99.90;;;;;;5091437;28;20036;-59
2021/12/10 05:38:53;;;;;;;29.58;17.15;;;2.30;99.90;;;;;;5088664;28;20452;-60
2021/12/10 05:41:18;;;;;;;27.23;15.98;;;2.20;99.90;;;;;;5093423;28;20542;-58
2021/12/10 05:43:44;;;;;;;30.60;17.52;;;2.20;99.90;;;;;;5088365;28;20128;-58
2021/12/10 05:46:12;;;;;;;32.15;17.10;;;2.20;99.90;;;;;;5093082;28;20119;-59
2021/12/10 05:48:39;;;;;;;26.67;16.45;;;2.20;99.90;;;;;;5082977;28;20050;-59
2021/12/10 05:51:05;;;;;;;28.55;15.90;;;2.20;99.90;;;;;;5091777;28;20115;-59
2021/12/10 05:53:31;;;;;;;29.25;16.42;;;2.10;99.90;;;;;;5091323;28;20114;-59
2021/12/10 05:55:57;;;;;;;31.42;17.83;;;2.10;99.90;;;;;;5091883;28;20076;-58
2021/12/10 05:58:23;;;;;;;27.95;15.68;;;2.10;99.90;;;;;;5088846;28;20051;-59
2021/12/10 06:01:03;;;;;;;33.45;16.45;;;2.10;99.90;;;;;;5089902;28;20036;-59
2021/12/10 06:03:33;;;;;;;29.40;16.63;;;2.10;99.90;;;;;;5081113;28;20115;-59
2021/12/10 06:06:00;;;;;;;29.08;16.15;;;2.00;99.90;;;;;;5091699;28;20178;-59
2021/12/10 06:08:26;;;;;;;29.70;15.75;;;2.00;99.90;;;;;;5099224;28;20116;-58
2021/12/10 06:10:53;;;;;;;29.40;16.73;;;2.00;99.90;;;;;;5113347;28;20490;-59
2021/12/10 06:13:19;;;;;;;33.40;16.55;;;2.30;99.90;;;;;;5078124;28;20047;-59
2021/12/10 06:15:45;;;;;;;27.60;15.68;;;1.90;99.90;;;;;;5111175;28;20084;-58
2021/12/10 06:18:12;;;;;;;26.63;15.77;;;1.90;99.90;;;;;;5092794;28;20464;-59
2021/12/10 06:20:46;;;;;;;26.90;15.75;;;1.90;99.90;;;;;;5106160;28;20043;-58
2021/12/10 06:23:12;;;;;;;;;;;2.00;99.90;;;;;;5111016;28;20077;-59
2021/12/10 06:25:38;;;;;;;25.25;14.60;;;1.90;99.90;;;;;;5094255;28;19962;-58
2021/12/10 06:28:05;;;;;;;22.70;14.18;;;1.90;99.90;;;;;;5108856;28;20071;-59
2021/12/10 06:30:37;;;;;;;24.33;14.52;;;1.90;99.90;;;;;;5112640;28;20040;-59
2021/12/10 06:33:05;;;;;;;24.63;15.43;;;1.90;99.90;;;;;;5112544;28;20093;-59
2021/12/10 06:35:32;;;;;;;24.83;14.52;;;1.90;99.90;;;;;;5104760;28;20039;-58
2021/12/10 06:37:59;;;;;;;24.75;14.40;;;1.90;99.90;;;;;;5112426;28;20035;-58
2021/12/10 06:40:28;;;;;;;25.30;14.35;;;1.90;99.90;;;;;;5088910;28;20035;-60
2021/12/10 06:42:54;;;;;;;24.95;14.80;;;1.90;99.90;;;;;;5094240;28;20065;-58
2021/12/10 06:45:22;;;;;;;20.08;13.32;;;1.80;99.90;;;;;;5090626;28;20039;-58
2021/12/10 06:47:50;;;;;;;24.27;13.65;;;1.80;99.90;;;;;;5092672;28;20076;-59
2021/12/10 06:50:22;;;;;;;26.55;14.10;;;1.80;99.90;;;;;;5101071;28;20043;-59
2021/12/10 06:52:48;;;;;;;23.52;13.90;;;1.80;99.90;;;;;;5112243;28;20406;-59
2021/12/10 06:55:14;;;;;;;24.67;13.68;;;1.80;99.90;;;;;;5104916;28;20544;-58
2021/12/10 06:57:40;;;;;;;24.42;13.77;;;1.80;99.90;;;;;;5091914;28;20036;-59
2021/12/10 07:00:14;;;;;;;25.63;13.77;;;1.80;99.90;;;;;;5110295;28;20046;-59
2021/12/10 07:02:39;;;;;;;21.98;13.43;;;1.80;99.90;;;;;;5109421;28;20390;-58
2021/12/10 07:05:06;;;;;;;25.02;14.23;;;1.80;99.90;;;;;;5105394;28;20039;-59
2021/12/10 07:07:32;;;;;;;21.88;12.95;;;1.80;99.90;;;;;;5110701;28;20048;-58
2021/12/10 07:10:02;;;;;;;23.50;13.20;;;1.70;99.90;;;;;;5109289;28;20491;-59
2021/12/10 07:12:28;;;;;;;24.02;12.50;;;1.70;99.90;;;;;;5111351;28;20044;-58
2021/12/10 07:14:56;;;;;;;21.80;12.70;;;1.70;99.90;;;;;;5108060;28;20035;-59
2021/12/10 07:17:22;;;;;;;21.42;12.88;;;1.70;99.90;;;;;;5110137;28;20031;-59
2021/12/10 07:19:47;;;;;;;23.85;12.68;;;1.70;99.90;;;;;;5109768;28;20490;-58
2021/12/10 07:22:13;;;;;;;25.17;13.07;;;1.70;99.90;;;;;;5105815;28;20505;-59
2021/12/10 07:24:39;;;;;;;25.17;12.20;;;1.70;99.90;;;;;;5107632;28;20031;-58
2021/12/10 07:27:09;;;;;;;22.45;12.07;;;1.70;99.90;;;;;;5092789;28;20093;-57
2021/12/10 07:29:35;;;;;;;16.45;10.93;;;1.70;99.90;;;;;;5108026;28;20039;-59
2021/12/10 07:32:01;;;;;;;20.88;11.02;;;1.70;99.90;;;;;;5111510;28;20050;-58
2021/12/10 07:34:27;;;;;;;22.27;11.43;;;1.70;99.90;;;;;;5107578;28;20027;-58
2021/12/10 07:36:52;;;;;;;25.60;11.90;;;1.70;99.90;;;;;;5108397;28;20030;-59
2021/12/10 07:39:18;;;;;;;20.80;11.55;;;1.70;99.90;;;;;;5108929;28;20040;-59
2021/12/10 07:41:44;;;;;;;18.73;11.73;;;1.70;99.90;;;;;;5111327;28;20100;-58
2021/12/10 07:44:11;;;;;;;17.42;9.98;;;1.70;99.90;;;;;;5102123;28;20110;-58
2021/12/10 07:46:37;;;;;;;21.42;10.85;;;1.70;99.90;;;;;;5109458;28;20040;-59
2021/12/10 07:49:04;;;;;;;17.17;9.98;;;1.70;99.90;;;;;;5108406;28;20106;-58
2021/12/10 07:51:31;;;;;;;18.27;9.20;;;1.70;99.90;;;;;;5102448;28;20070;-59
2021/12/10 07:53:59;;;;;;;17.17;9.65;;;1.70;99.90;;;;;;5091362;28;20051;-58
2021/12/10 07:56:29;;;;;;;19.95;9.70;;;1.80;99.90;;;;;;5110570;28;20032;-59
2021/12/10 07:58:55;;;;;;;19.33;9.65;;;1.80;99.90;;;;;;5108777;28;20118;-58
2021/12/10 08:01:28;;;;;;;17.20;9.45;;;1.80;99.90;;;;;;5075093;28;20071;-58
2021/12/10 08:03:56;;;;;;;17.52;9.13;;;1.80;99.90;;;;;;5109633;28;20082;-58
2021/12/10 08:06:22;;;;;;;17.63;8.13;;;1.80;99.90;;;;;;5108434;28;20076;-59
2021/12/10 08:08:48;;;;;;;17.73;8.82;;;1.80;99.90;;;;;;5109984;28;20083;-59
2021/12/10 08:11:18;;;;;;;20.35;9.23;;;1.80;99.90;;;;;;5075592;28;20047;-59
2021/12/10 08:13:45;;;;;;;15.90;8.95;;;1.90;99.90;;;;;;5107830;28;20502;-59
2021/12/10 08:16:11;;;;;;;20.25;8.63;;;1.90;99.90;;;;;;5110820;28;20128;-59
2021/12/10 08:18:37;;;;;;;15.20;8.50;;;1.90;99.90;;;;;;5107176;28;20043;-59
2021/12/10 08:21:05;;;;;;;16.30;8.25;;;1.90;99.90;;;;;;5107711;28;20036;-58
2021/12/10 08:23:31;;;;;;;18.60;8.77;;;1.90;99.90;;;;;;5109192;28;20463;-59
2021/12/10 08:25:57;;;;;;;16.30;8.40;;;1.90;99.90;;;;;;5089374;28;20036;-59
2021/12/10 08:28:25;;;;;;;15.93;7.63;;;1.90;99.90;;;;;;5105032;28;20482;-59
2021/12/10 08:30:53;;;;;;;16.02;8.05;;;1.90;99.90;;;;;;5077854;28;20418;-58
2021/12/10 08:33:20;;;;;;;16.88;8.18;;;1.90;99.90;;;;;;5078945;28;20043;-58
2021/12/10 08:35:51;;;;;;;16.70;8.10;;;2.20;99.90;;;;;;5069990;28;20688;-57
2021/12/10 08:38:17;;;;;;;16.15;7.53;;;1.90;99.90;;;;;;5064473;28;20044;-58
2021/12/10 08:40:55;;;;;;;18.35;7.50;;;1.90;99.90;;;;;;5078034;28;20114;-58
2021/12/10 08:43:21;;;;;;;14.90;7.63;;;1.90;99.90;;;;;;5079433;28;20043;-58
2021/12/10 08:45:47;;;;;;;22.45;7.70;;;1.90;99.90;;;;;;5101973;28;20092;-57
2021/12/10 08:48:12;;;;;;;16.67;7.40;;;1.90;99.90;;;;;;5097304;28;20035;-58
2021/12/10 08:50:41;;;;;;;15.32;7.57;;;1.90;99.90;;;;;;5090171;28;22741;-58
2021/12/10 08:53:12;;;;;;;15.77;6.97;;;1.90;99.90;;;;;;5065886;28;20380;-58
2021/12/10 08:55:43;;;;;;;17.00;8.73;;;1.90;99.90;;;;;;5064302;28;20053;-57
2021/12/10 08:58:11;;;;;;;12.55;7.68;;;1.90;99.90;;;;;;5067225;28;20126;-57
2021/12/10 09:00:39;;;;;;;15.50;7.53;;;1.90;99.90;;;;;;5078168;28;20044;-59
2021/12/10 09:03:05;;;;;;;13.32;7.93;;;1.90;99.90;;;;;;5063870;28;20040;-58
2021/12/10 09:05:30;;;;;;;15.23;7.43;;;2.00;99.90;;;;;;5066480;28;20061;-58
2021/12/10 09:07:56;;;;;;;17.40;7.65;;;2.00;99.90;;;;;;5050136;28;20063;-59
2021/12/10 09:10:27;;;;;;;15.65;7.63;;;2.00;99.90;;;;;;5051619;28;20052;-58
2021/12/10 09:12:53;;;;;;;14.77;7.45;;;2.00;99.90;;;;;;5064260;28;20036;-57
2021/12/10 09:15:22;;;;;;;16.40;8.02;;;2.10;99.90;;;;;;5051676;28;20046;-58
2021/12/10 09:17:50;;;;;;;17.38;7.47;;;2.10;99.90;;;;;;5067569;28;20088;-58
2021/12/10 09:20:21;;;;;;;14.82;7.80;;;1.40;99.90;;;;;;5065938;28;20423;-58
2021/12/10 09:22:47;;;;;;;13.25;7.55;;;2.20;99.90;;;;;;5067033;28;22272;-57
2021/12/10 09:25:15;;;;;;;17.85;8.32;;;2.20;99.90;;;;;;5064201;28;20139;-56
2021/12/10 09:27:41;;;;;;;16.17;7.72;;;2.30;99.90;;;;;;5051491;28;20048;-60
2021/12/10 09:30:10;;;;;;;16.58;7.57;;;2.30;99.90;;;;;;5033488;28;20047;-59
2021/12/10 09:32:36;;;;;;;14.10;7.53;;;2.50;99.90;;;;;;5068738;28;20048;-58
2021/12/10 09:35:05;;;;;;;16.63;8.23;;;2.50;99.90;;;;;;5068598;28;20078;-58
2021/12/10 09:37:33;;;;;;;14.35;7.45;;;2.50;99.90;;;;;;5047648;28;21980;-59
2021/12/10 09:39:59;;;;;;;18.23;7.55;;;2.60;99.90;;;;;;5050583;28;20102;-58
2021/12/10 09:42:25;;;;;;;13.93;7.28;;;2.60;99.90;;;;;;5066541;28;20059;-58
2021/12/10 09:44:53;;;;;;;14.40;7.03;;;2.70;99.90;;;;;;5067575;28;20035;-58
2021/12/10 09:47:19;;;;;;;12.60;6.55;;;2.70;99.90;;;;;;5067199;28;20786;-58
2021/12/10 09:49:48;;;;;;;14.93;6.95;;;2.80;99.90;;;;;;5036187;28;20252;-59
2021/12/10 09:52:18;;;;;;;14.00;6.72;;;2.80;99.90;;;;;;5072907;28;20101;-59
2021/12/10 09:54:45;;;;;;;10.38;6.10;;;3.20;99.90;;;;;;5066636;28;20204;-58
2021/12/10 09:57:19;;;;;;;14.48;6.80;;;3.00;99.90;;;;;;5067423;28;22132;-59
2021/12/10 09:59:47;;;;;;;12.57;6.35;;;3.00;99.90;;;;;;5068137;28;20115;-60
2021/12/10 10:02:13;;;;;;;13.93;6.80;;;3.10;99.90;;;;;;5068117;28;20546;-58
2021/12/10 10:04:46;;;;;;;9.55;5.72;;;4.10;99.90;;;;;;5066443;28;20042;-58
2021/12/10 10:07:14;;;;;;;11.88;5.63;;;3.30;99.90;;;;;;5066881;28;20880;-59
2021/12/10 10:09:46;;;;;;;9.30;5.63;;;3.40;99.90;;;;;;5068395;28;20043;-59
2021/12/10 10:12:17;;;;;;;10.52;5.80;;;3.50;99.90;;;;;;5046091;28;20299;-59
2021/12/10 10:14:43;;;;;;;13.45;5.45;;;3.70;99.90;;;;;;5046447;28;20052;-59
2021/12/10 10:17:11;;;;;;;8.85;4.88;;;3.90;99.90;;;;;;5065744;28;20196;-58
2021/12/10 10:19:37;;;;;;;10.73;4.85;;;4.20;99.90;;;;;;5057142;28;20084;-60
2021/12/10 10:22:06;;;;;;;11.50;5.15;;;4.50;99.90;;;;;;5071846;28;20036;-58
2021/12/10 10:24:33;;;;;;;9.50;4.53;;;4.80;99.90;;;;;;5065923;28;22381;-58
2021/12/10 10:27:14;;;;;;;11.73;5.13;;;5.00;99.90;;;;;;5066335;28;20071;-58
2021/12/10 10:29:44;;;;;;;9.20;4.97;;;5.30;99.90;;;;;;5066187;28;20039;-59
2021/12/10 10:32:15;;;;;;;11.32;4.60;;;5.50;99.90;;;;;;5066799;28;20449;-58
2021/12/10 10:34:46;;;;;;;9.25;4.55;;;5.50;99.90;;;;;;5068219;28;20043;-58
2021/12/10 10:37:12;;;;;;;13.10;4.97;;;5.60;99.90;;;;;;5069057;28;20024;-59
2021/12/10 10:39:41;;;;;;;10.00;4.07;;;5.80;99.90;;;;;;5066410;28;20165;-59
2021/12/10 10:42:11;;;;;;;11.95;4.82;;;5.90;99.90;;;;;;5066426;28;20118;-59
2021/12/10 10:44:37;;;;;;;9.10;4.28;;;6.00;99.90;;;;;;5068507;28;20093;-59
2021/12/10 10:47:04;;;;;;;8.52;4.20;;;6.10;99.90;;;;;;5066138;28;20466;-58
2021/12/10 10:49:42;;;;;;;9.88;4.50;;;6.10;99.90;;;;;;5067201;28;20088;-59
2021/12/10 10:52:35;;;;;;;10.45;4.35;;;6.20;99.90;;;;;;5048590;28;20040;-58
2021/12/10 10:55:22;;;;;;;10.30;4.43;;;6.20;99.90;;;;;;5065379;28;20129;-59
2021/12/10 10:58:20;;;;;;;9.32;4.57;;;6.10;99.90;;;;;;5065715;28;20127;-59
2021/12/10 11:00:58;;;;;;;9.50;4.05;;;5.90;99.90;;;;;;5034005;28;20055;-58
2021/12/10 11:03:35;;;;;;;8.73;4.00;;;5.80;99.90;;;;;;5067079;28;20486;-59
2021/12/10 11:06:02;;;;;;;9.43;4.03;;;5.90;99.90;;;;;;5067712;28;20035;-58
2021/12/10 11:08:32;;;;;;;8.07;4.10;;;5.90;99.90;;;;;;5067591;28;20082;-58
2021/12/10 11:11:19;;;;;;;10.63;4.35;;;5.80;99.90;;;;;;5065161;28;20569;-59
2021/12/10 11:14:06;;;;;;;8.57;3.90;;;5.90;99.90;;;;;;5064683;28;20059;-59
2021/12/10 11:16:35;;;;;;;8.43;4.03;;;6.20;99.90;;;;;;5065808;28;20062;-58
2021/12/10 11:19:11;;;;;;;8.75;3.97;;;5.90;99.90;;;;;;5039756;28;20349;-59
2021/12/10 11:21:48;;;;;;;9.32;4.30;;;5.90;99.90;;;;;;5080292;28;20059;-59
2021/12/10 11:24:20;;;;;;;10.65;4.30;;;5.90;99.90;;;;;;5077473;28;20043;-59
2021/12/10 11:26:58;;;;;;;10.32;3.58;;;5.90;99.90;;;;;;5094549;28;20569;-58
2021/12/10 11:29:36;;;;;;;10.77;4.18;;;6.00;99.90;;;;;;5097438;28;20069;-59
2021/12/10 11:32:14;;;;;;;7.95;3.42;;;6.00;99.90;;;;;;5083778;28;20092;-59
2021/12/10 11:34:44;;;;;;;9.52;3.80;;;6.10;99.90;;;;;;5100654;28;20028;-58
2021/12/10 11:37:12;;;;;;;6.78;3.65;;;6.10;99.90;;;;;;5060881;28;20028;-58
2021/12/10 11:39:49;;;;;;;10.25;3.80;;;6.30;99.90;;;;;;5100991;28;20027;-59
2021/12/10 11:42:57;;;;;;;7.65;3.78;;;6.00;99.90;;;;;;5102317;28;20386;-58
2021/12/10 11:45:32;;;;;;;7.28;3.55;;;5.80;99.90;;;;;;5019172;28;22067;-59
2021/12/10 11:48:07;;;;;;;7.68;3.70;;;5.70;99.90;;;;;;5089194;28;20396;-58
2021/12/10 11:50:36;;;;;;;11.98;4.13;;;5.70;99.90;;;;;;5075071;28;20501;-59
2021/12/10 11:53:09;;;;;;;11.27;4.10;;;5.60;99.90;;;;;;5067098;28;20032;-58
2021/12/10 11:55:35;;;;;;;10.63;3.63;;;5.60;99.90;;;;;;5065615;28;20048;-58
2021/12/10 11:58:04;;;;;;;13.80;5.50;;;5.70;99.90;;;;;;5067649;28;20906;-58
2021/12/10 12:00:34;;;;;;;11.75;5.03;;;5.70;99.90;;;;;;5064157;28;20027;-58
2021/12/10 12:03:07;;;;;;;11.45;4.45;;;5.60;99.90;;;;;;5063891;28;20171;-59
2021/12/10 12:05:40;;;;;;;10.95;4.65;;;5.60;99.90;;;;;;5063404;28;20051;-59
2021/12/10 12:08:15;;;;;;;11.05;4.20;;;5.60;99.90;;;;;;5047516;28;20139;-58
2021/12/10 12:10:43;;;;;;;7.38;3.35;;;5.70;99.90;;;;;;5065606;28;20047;-59
2021/12/10 12:16:14;;;;;;;5.70;3.08;;;5.70;99.90;;;;;;5067504;28;20048;-58
2021/12/10 12:18:50;;;;;;;8.20;3.25;;;5.70;99.90;;;;;;5047955;28;20059;-58
2021/12/10 12:27:17;;;;;;;9.05;3.50;;;5.90;99.90;;;;;;5062938;28;20125;-58
2021/12/10 12:29:48;;;;;;;7.15;3.42;;;6.00;99.90;;;;;;5063525;28;20075;-58
2021/12/10 12:32:19;;;;;;;8.27;3.22;;;6.00;99.90;;;;;;5063186;28;20671;-59
2021/12/10 12:34:46;;;;;;;11.35;3.28;;;6.10;99.90;;;;;;5061710;28;20043;-58
2021/12/10 12:37:15;;;;;;;9.10;3.67;;;6.10;99.90;;;;;;5063772;28;20044;-58
2021/12/10 12:39:54;;;;;;;5.97;3.05;;;6.20;99.90;;;;;;5065691;28;20084;-57
2021/12/10 12:42:23;;;;;;;10.50;3.15;;;6.30;99.90;;;;;;5064682;28;20383;-58
2021/12/10 12:44:59;;;;;;;6.75;3.13;;;6.30;99.90;;;;;;5065197;28;20039;-59
2021/12/10 12:47:28;;;;;;;11.35;3.47;;;6.30;99.90;;;;;;5064456;28;20043;-59
2021/12/10 12:50:22;;;;;;;9.75;3.90;;;6.30;99.90;;;;;;5069110;28;20040;-59
2021/12/10 12:52:59;;;;;;;7.88;2.80;;;6.40;99.90;;;;;;5052765;28;20620;-58
2021/12/10 12:55:57;;;;;;;6.70;2.75;;;6.30;99.90;;;;;;5066180;28;21852;-58
2021/12/10 12:58:59;;;;;;;9.38;3.15;;;6.30;99.90;;;;;;5057803;28;20193;-55
2021/12/10 13:01:35;;;;;;;7.38;3.10;;;6.40;99.90;;;;;;5060084;28;20044;-56
2021/12/10 13:04:15;;;;;;;6.22;3.17;;;6.30;99.90;;;;;;5067780;28;20040;-56
2021/12/10 13:06:47;;;;;;;8.88;2.80;;;6.30;99.90;;;;;;5068726;28;20063;-57
2021/12/10 13:09:27;;;;;;;9.90;3.65;;;6.30;99.90;;;;;;5064882;28;20059;-56
2021/12/10 13:12:06;;;;;;;8.63;3.30;;;6.20;99.90;;;;;;5078189;27;20132;-57
2021/12/10 13:14:57;;;;;;;5.85;2.97;;;6.20;99.90;;;;;;5067096;28;20173;-57